createdAt,value
2023-04-07T00:01:33.075Z,100416.81
2023-04-07T00:04:01.317Z,100416.22
2023-04-07T00:06:29.450Z,100415.25
2023-04-07T00:08:57.352Z,100411.91
2023-04-07T00:11:25.652Z,100404.00
2023-04-07T00:13:55.277Z,100411.34
2023-04-07T00:16:23.659Z,100415.47
2023-04-07T00:18:51.602Z,100411.66
2023-04-07T00:21:19.592Z,100410.44
2023-04-07T00:23:47.840Z,100411.56
2023-04-07T00:26:15.770Z,100415.56
2023-04-07T00:28:43.769Z,100420.72
2023-04-07T00:31:13.090Z,100411.28
2023-04-07T00:33:41.066Z,100408.81
2023-04-07T00:36:09.320Z,100418.78
2023-04-07T00:38:37.308Z,100418.84
2023-04-07T00:41:05.911Z,100411.72
2023-04-07T00:43:33.873Z,100414.00
2023-04-07T00:46:02.578Z,100409.72
2023-04-07T00:48:32.151Z,100405.84
2023-04-07T00:51:00.140Z,100416.31
2023-04-07T00:53:28.197Z,100415.13
2023-04-07T00:55:56.363Z,100419.06
2023-04-07T00:58:24.268Z,100420.00
2023-04-07T01:00:59.323Z,100404.50
2023-04-07T01:03:35.009Z,100410.00
2023-04-07T01:06:04.185Z,100402.19
2023-04-07T01:08:39.735Z,100404.00
2023-04-07T01:11:14.826Z,100404.91
2023-04-07T01:13:47.646Z,100398.09
2023-04-07T01:16:21.064Z,100407.09
2023-04-07T01:18:55.545Z,100396.97
2023-04-07T01:21:24.094Z,100398.38
2023-04-07T01:24:06.828Z,100409.22
2023-04-07T01:26:35.367Z,100404.41
2023-04-07T01:29:12.899Z,100400.22
2023-04-07T01:31:43.195Z,100403.81
2023-04-07T01:34:12.184Z,100405.75
2023-04-07T01:36:41.135Z,100411.00
2023-04-07T01:39:10.696Z,100404.06
2023-04-07T01:41:39.503Z,100402.50
2023-04-07T01:44:09.227Z,100400.69
2023-04-07T01:46:37.137Z,100401.25
2023-04-07T01:49:07.741Z,100382.88
2023-04-07T01:51:36.017Z,100393.53
2023-04-07T01:54:05.801Z,100393.69
2023-04-07T01:56:33.728Z,100398.69
2023-04-07T01:59:01.644Z,100392.00
2023-04-07T02:01:31.009Z,100395.53
2023-04-07T02:04:07.800Z,100385.31
2023-04-07T02:06:43.385Z,100398.22
2023-04-07T02:09:14.479Z,100398.16
2023-04-07T02:11:45.064Z,100400.16
2023-04-07T02:14:14.659Z,100395.69
2023-04-07T02:16:45.210Z,100385.41
2023-04-07T02:19:14.845Z,100393.53
2023-04-07T02:21:46.799Z,100393.44
2023-04-07T02:24:14.734Z,100392.53
2023-04-07T02:26:44.193Z,100383.94
2023-04-07T02:29:12.100Z,100398.28
2023-04-07T02:31:40.143Z,100386.66
2023-04-07T02:34:08.070Z,100395.91
2023-04-07T02:36:35.964Z,100390.31
2023-04-07T02:39:05.574Z,100398.38
2023-04-07T02:41:33.519Z,100402.97
2023-04-07T02:44:01.436Z,100401.84
2023-04-07T02:46:29.360Z,100404.84
2023-04-07T02:48:57.317Z,100408.88
2023-04-07T02:51:25.236Z,100411.03
2023-04-07T02:53:53.347Z,100412.75
2023-04-07T02:56:22.706Z,100412.84
2023-04-07T02:58:50.689Z,100414.41
2023-04-07T03:01:18.658Z,100409.13
2023-04-07T03:03:47.925Z,100421.41
2023-04-07T03:06:16.060Z,100418.44
2023-04-07T03:08:44.160Z,100416.81
2023-04-07T03:11:12.395Z,100431.75
2023-04-07T03:13:41.936Z,100423.03
2023-04-07T03:16:09.895Z,100427.22
2023-04-07T03:18:37.806Z,100428.56
2023-04-07T03:21:05.737Z,100437.38
2023-04-07T03:23:33.644Z,100433.50
2023-04-07T03:26:01.605Z,100433.53
2023-04-07T03:28:29.494Z,100442.03
2023-04-07T03:30:59.003Z,100433.66
2023-04-07T03:33:26.922Z,100438.38
2023-04-07T03:35:54.912Z,100433.78
2023-04-07T03:38:22.961Z,100439.44
2023-04-07T03:40:50.978Z,100434.06
2023-04-07T03:43:18.956Z,100445.16
2023-04-07T03:45:47.905Z,100450.75
2023-04-07T03:48:17.236Z,100461.78
2023-04-07T03:50:45.233Z,100459.44
2023-04-07T03:53:14.020Z,100464.06
2023-04-07T03:55:42.000Z,100451.28
2023-04-07T03:58:10.256Z,100456.97
2023-04-07T04:00:38.462Z,100457.28
2023-04-07T04:03:06.575Z,100444.56
2023-04-07T04:05:35.988Z,100467.00
2023-04-07T04:08:03.911Z,100467.03
2023-04-07T04:10:31.921Z,100470.44
2023-04-07T04:13:00.834Z,100467.81
2023-04-07T04:15:28.733Z,100470.88
2023-04-07T04:17:56.677Z,100473.22
2023-04-07T04:20:24.607Z,100478.47
2023-04-07T04:22:53.899Z,100487.91
2023-04-07T04:25:22.119Z,100480.50
2023-04-07T04:27:50.071Z,100485.56
2023-04-07T04:30:18.060Z,100486.84
2023-04-07T04:32:46.052Z,100487.44
2023-04-07T04:35:14.206Z,100494.50
2023-04-07T04:37:42.131Z,100489.25
2023-04-07T04:40:12.819Z,100503.00
2023-04-07T04:42:41.068Z,100512.44
2023-04-07T04:45:10.131Z,100486.34
2023-04-07T04:47:39.097Z,100511.78
2023-04-07T04:50:07.881Z,100513.31
2023-04-07T04:52:35.803Z,100514.03
2023-04-07T04:55:03.981Z,100524.28
2023-04-07T04:57:34.814Z,100517.06
2023-04-07T05:00:03.034Z,100532.00
2023-04-07T05:02:31.170Z,100535.66
2023-04-07T05:04:59.359Z,100528.97
2023-04-07T05:07:27.693Z,100538.78
2023-04-07T05:09:55.584Z,100535.81
2023-04-07T05:12:23.531Z,100535.53
2023-04-07T05:14:52.872Z,100546.66
2023-04-07T05:17:20.823Z,100550.34
2023-04-07T05:19:48.847Z,100541.84
2023-04-07T05:22:16.875Z,100546.22
2023-04-07T05:24:44.890Z,100551.53
2023-04-07T05:27:12.812Z,100553.63
2023-04-07T05:29:40.759Z,100548.75
2023-04-07T05:32:10.077Z,100553.41
2023-04-07T05:34:38.064Z,100538.25
2023-04-07T05:37:05.991Z,100547.56
2023-04-07T05:39:33.907Z,100563.16
2023-04-07T05:42:02.314Z,100558.91
2023-04-07T05:44:30.407Z,100561.63
2023-04-07T05:46:58.321Z,100559.66
2023-04-07T05:49:27.794Z,100563.16
2023-04-07T05:51:56.034Z,100577.16
2023-04-07T05:54:24.020Z,100578.63
2023-04-07T05:56:51.988Z,100570.59
2023-04-07T05:59:19.914Z,100558.69
2023-04-07T06:01:47.967Z,100572.75
2023-04-07T06:04:16.046Z,100586.00
2023-04-07T06:06:45.439Z,100574.91
2023-04-07T06:09:13.374Z,100586.44
2023-04-07T06:11:41.306Z,100593.44
2023-04-07T06:14:09.237Z,100586.50
2023-04-07T06:16:37.291Z,100587.78
2023-04-07T06:19:05.291Z,100592.31
2023-04-07T06:21:33.196Z,100591.50
2023-04-07T06:24:02.778Z,100595.13
2023-04-07T06:26:30.776Z,100597.72
2023-04-07T06:28:59.516Z,100598.69
2023-04-07T06:31:28.137Z,100597.28
2023-04-07T06:33:56.415Z,100595.53
2023-04-07T06:36:24.730Z,100594.03
2023-04-07T06:38:52.754Z,100597.13
2023-04-07T06:41:22.076Z,100598.38
2023-04-07T06:43:51.386Z,100605.56
2023-04-07T06:46:19.637Z,100596.16
2023-04-07T06:48:47.738Z,100611.44
2023-04-07T06:51:15.723Z,100604.28
2023-04-07T06:53:44.378Z,100614.16
2023-04-07T06:56:13.200Z,100615.81
2023-04-07T06:58:42.490Z,100614.59
2023-04-07T07:01:10.445Z,100621.22
2023-04-07T07:03:38.454Z,100620.22
2023-04-07T07:06:06.668Z,100618.31
2023-04-07T07:08:34.744Z,100616.66
2023-04-07T07:11:02.724Z,100623.91
2023-04-07T07:13:30.610Z,100624.84
2023-04-07T07:16:01.141Z,100630.22
2023-04-07T07:18:31.595Z,100639.78
2023-04-07T07:20:59.821Z,100639.22
2023-04-07T07:23:27.671Z,100636.19
2023-04-07T07:25:55.615Z,100630.41
2023-04-07T07:28:23.851Z,100633.38
2023-04-07T07:30:51.798Z,100639.88
2023-04-07T07:33:22.851Z,100636.28
2023-04-07T07:35:50.870Z,100642.50
2023-04-07T07:38:18.824Z,100647.50
2023-04-07T07:40:47.228Z,100649.56
2023-04-07T07:43:15.467Z,100641.47
2023-04-07T07:45:43.531Z,100650.97
2023-04-07T07:48:12.130Z,100648.78
2023-04-07T07:50:42.895Z,100634.66
2023-04-07T07:53:11.075Z,100613.91
2023-04-07T07:55:39.429Z,100651.44
2023-04-07T07:58:07.353Z,100652.09
2023-04-07T08:00:35.295Z,100664.00
2023-04-07T08:03:03.412Z,100649.47
2023-04-07T08:05:31.939Z,100644.22
2023-04-07T08:08:01.696Z,100655.41
2023-04-07T08:10:29.812Z,100648.06
2023-04-07T08:12:57.826Z,100657.66
2023-04-07T08:15:26.724Z,100655.28
2023-04-07T08:17:56.340Z,100655.66
2023-04-07T08:20:24.987Z,100631.63
2023-04-07T08:22:53.561Z,100653.50
2023-04-07T08:25:22.962Z,100650.91
2023-04-07T08:27:50.990Z,100644.94
2023-04-07T08:30:21.118Z,100650.00
2023-04-07T08:32:49.972Z,100663.38
2023-04-07T08:35:18.004Z,100642.69
2023-04-07T08:37:46.043Z,100652.09
2023-04-07T08:40:14.402Z,100657.34
2023-04-07T08:42:48.430Z,100655.31
2023-04-07T08:45:19.133Z,100655.75
2023-04-07T08:47:49.377Z,100646.13
2023-04-07T08:50:19.349Z,100645.25
2023-04-07T08:52:55.611Z,100647.72
2023-04-07T08:55:23.904Z,100633.13
2023-04-07T08:57:54.690Z,100652.81
2023-04-07T09:00:22.854Z,100653.81
2023-04-07T09:02:52.774Z,100648.13
2023-04-07T09:05:22.089Z,100647.31
2023-04-07T09:07:50.838Z,100663.44
2023-04-07T09:10:18.899Z,100662.53
2023-04-07T09:12:47.392Z,100656.94
2023-04-07T09:15:17.089Z,100645.13
2023-04-07T09:17:45.523Z,100662.38
2023-04-07T09:20:13.787Z,100665.59
2023-04-07T09:22:43.581Z,100664.53
2023-04-07T09:25:16.503Z,100653.06
2023-04-07T09:27:59.349Z,100657.19
2023-04-07T09:30:29.893Z,100658.09
2023-04-07T09:32:59.196Z,100655.81
2023-04-07T09:35:28.556Z,100660.66
2023-04-07T09:38:04.874Z,100666.13
2023-04-07T09:40:33.133Z,100659.31
2023-04-07T09:43:01.530Z,100667.06
2023-04-07T09:45:35.776Z,100654.63
2023-04-07T09:48:09.057Z,100670.53
2023-04-07T09:50:41.557Z,100661.41
2023-04-07T09:53:09.714Z,100673.84
2023-04-07T09:55:38.942Z,100674.16
2023-04-07T09:58:07.670Z,100671.44
2023-04-07T10:00:37.505Z,100680.00
2023-04-07T10:03:06.649Z,100670.81
2023-04-07T10:05:36.672Z,100667.94
2023-04-07T10:08:05.326Z,100684.28
2023-04-07T10:10:34.239Z,100671.53
2023-04-07T10:13:05.912Z,100642.50
2023-04-07T10:15:34.543Z,100658.09
2023-04-07T10:18:08.660Z,100665.00
2023-04-07T10:20:40.200Z,100681.94
2023-04-07T10:23:17.667Z,100635.44
2023-04-07T10:25:48.928Z,100670.81
2023-04-07T10:28:19.542Z,100666.84
2023-04-07T10:30:50.018Z,100680.94
2023-04-07T10:33:20.280Z,100694.69
2023-04-07T10:36:06.637Z,100692.09
2023-04-07T10:38:34.865Z,100677.25
2023-04-07T10:41:36.682Z,100675.22
2023-04-07T10:44:05.350Z,100682.66
2023-04-07T10:47:07.416Z,100665.00
2023-04-07T10:49:38.149Z,100666.13
2023-04-07T10:52:25.416Z,100680.75
2023-04-07T10:55:31.862Z,100691.16
2023-04-07T10:58:20.518Z,100683.97
2023-04-07T11:01:31.207Z,100688.81
2023-04-07T11:04:02.358Z,100690.09
2023-04-07T11:06:32.095Z,100690.19
2023-04-07T11:09:00.704Z,100685.25
2023-04-07T11:11:43.175Z,100683.25
2023-04-07T11:14:11.313Z,100686.31
2023-04-07T11:16:41.865Z,100675.84
2023-04-07T11:19:10.154Z,100669.22
2023-04-07T11:21:39.724Z,100665.84
2023-04-07T11:24:08.021Z,100692.19
2023-04-07T11:26:41.128Z,100670.91
2023-04-07T11:29:10.590Z,100690.22
2023-04-07T11:31:40.138Z,100685.22
2023-04-07T11:34:09.187Z,100683.75
2023-04-07T11:36:42.454Z,100635.72
2023-04-07T11:39:20.671Z,100665.19
2023-04-07T11:41:50.278Z,100673.72
2023-04-07T11:44:18.535Z,100663.75
2023-04-07T11:46:56.567Z,100668.00
2023-04-07T11:49:26.151Z,100628.34
2023-04-07T11:52:02.289Z,100674.34
2023-04-07T11:54:41.370Z,100673.09
2023-04-07T11:57:12.257Z,100669.53
2023-04-07T11:59:41.563Z,100672.22
2023-04-07T12:02:10.028Z,100634.06
2023-04-07T12:04:41.003Z,100684.97
2023-04-07T12:07:11.940Z,100681.03
2023-04-07T12:09:40.114Z,100676.78
2023-04-07T12:12:10.772Z,100676.91
2023-04-07T12:14:39.153Z,100688.25
2023-04-07T12:17:08.158Z,100677.06
2023-04-07T12:19:36.553Z,100664.06
2023-04-07T12:22:04.967Z,100687.84
2023-04-07T12:24:34.713Z,100671.69
2023-04-07T12:27:03.200Z,100686.03
2023-04-07T12:29:31.653Z,100670.72
2023-04-07T12:31:59.882Z,100669.47
2023-04-07T12:34:28.155Z,100684.47
2023-04-07T12:36:56.613Z,100638.06
2023-04-07T12:39:24.690Z,100688.28
2023-04-07T12:41:54.434Z,100677.75
2023-04-07T12:44:22.634Z,100662.28
2023-04-07T12:46:50.638Z,100667.56
2023-04-07T12:49:18.991Z,100685.94
2023-04-07T12:51:47.136Z,100694.72
2023-04-07T12:54:15.151Z,100694.19
2023-04-07T12:56:43.175Z,100690.00
2023-04-07T12:59:13.071Z,100694.56
2023-04-07T13:01:41.202Z,100677.81
2023-04-07T13:04:09.359Z,100693.47
2023-04-07T13:06:37.414Z,100692.19
2023-04-07T13:09:05.467Z,100660.03
2023-04-07T13:11:33.862Z,100705.41
2023-04-07T13:14:02.006Z,100687.94
2023-04-07T13:16:32.180Z,100719.22
2023-04-07T13:19:00.174Z,100695.72
2023-04-07T13:21:45.406Z,100723.13
2023-04-07T13:24:15.283Z,100713.22
2023-04-07T13:26:43.625Z,100712.59
2023-04-07T13:29:11.948Z,100733.84
2023-04-07T13:31:41.710Z,100697.44
2023-04-07T13:34:09.697Z,100737.88
2023-04-07T13:36:37.621Z,100734.03
2023-04-07T13:39:05.704Z,100690.09
2023-04-07T13:41:33.768Z,100722.50
2023-04-07T13:44:02.479Z,100708.75
2023-04-07T13:46:30.847Z,100738.31
2023-04-07T13:49:00.689Z,100747.72
2023-04-07T13:51:29.472Z,100725.00
2023-04-07T13:53:57.633Z,100683.38
2023-04-07T13:56:25.751Z,100735.34
2023-04-07T13:58:54.166Z,100750.53
2023-04-07T14:01:22.225Z,100760.00
2023-04-07T14:03:50.668Z,100746.44
2023-04-07T14:06:22.824Z,100769.09
2023-04-07T14:08:51.164Z,100763.56
2023-04-07T14:11:19.561Z,100759.47
2023-04-07T14:13:48.007Z,100752.84
2023-04-07T14:16:16.713Z,100775.13
2023-04-07T14:18:44.774Z,100771.56
2023-04-07T14:21:12.864Z,100770.41
2023-04-07T14:23:42.457Z,100774.38
2023-04-07T14:26:11.863Z,100770.66
2023-04-07T14:28:40.116Z,100785.03
2023-04-07T14:31:08.078Z,100786.16
2023-04-07T14:33:36.596Z,100796.38
2023-04-07T14:36:04.826Z,100791.28
2023-04-07T14:38:35.218Z,100801.75
2023-04-07T14:41:09.962Z,100793.19
2023-04-07T14:43:39.184Z,100783.09
2023-04-07T14:46:07.346Z,100802.41
2023-04-07T14:48:35.829Z,100809.78
2023-04-07T14:51:09.700Z,100771.97
2023-04-07T14:53:37.962Z,100820.63
2023-04-07T14:56:08.042Z,100810.88
2023-04-07T14:58:37.634Z,100824.97
2023-04-07T15:01:06.548Z,100822.91
2023-04-07T15:03:34.857Z,100819.00
2023-04-07T15:06:03.218Z,100805.94
2023-04-07T15:08:33.282Z,100830.34
2023-04-07T15:11:01.205Z,100840.56
2023-04-07T15:13:30.552Z,100846.44
2023-04-07T15:15:58.909Z,100822.72
2023-04-07T15:18:27.023Z,100820.13
2023-04-07T15:20:55.133Z,100829.84
2023-04-07T15:23:22.994Z,100846.28
2023-04-07T15:25:56.031Z,100841.53
2023-04-07T15:28:24.368Z,100850.63
2023-04-07T15:30:53.760Z,100857.09
2023-04-07T15:33:21.818Z,100842.69
2023-04-07T15:35:49.850Z,100816.75
2023-04-07T15:38:18.265Z,100849.25
2023-04-07T15:40:46.463Z,100853.53
2023-04-07T15:43:14.624Z,100852.06
2023-04-07T15:45:43.964Z,100847.09
2023-04-07T15:48:14.998Z,100853.59
2023-04-07T15:50:43.078Z,100862.63
2023-04-07T15:53:11.345Z,100824.56
2023-04-07T15:55:40.065Z,100866.31
2023-04-07T15:58:08.639Z,100863.59
2023-04-07T16:00:37.154Z,100865.00
2023-04-07T16:03:06.252Z,100872.44
2023-04-07T16:05:35.928Z,100869.31
2023-04-07T16:08:03.962Z,100815.84
2023-04-07T16:10:32.027Z,100840.53
2023-04-07T16:13:00.095Z,100882.63
2023-04-07T16:15:39.302Z,100886.31
2023-04-07T16:18:10.322Z,100883.47
2023-04-07T16:20:39.700Z,100891.84
2023-04-07T16:23:07.705Z,100895.91
2023-04-07T16:25:36.362Z,100897.78
2023-04-07T16:28:04.401Z,100831.75
2023-04-07T16:30:32.409Z,100883.88
2023-04-07T16:33:01.882Z,100899.88
2023-04-07T16:35:31.021Z,100910.56
2023-04-07T16:38:04.117Z,100913.91
2023-04-07T16:40:32.117Z,100911.66
2023-04-07T16:43:00.209Z,100913.31
2023-04-07T16:45:28.169Z,100916.19
2023-04-07T16:47:56.110Z,100920.31
2023-04-07T16:50:24.101Z,100924.81
2023-04-07T16:52:52.025Z,100921.78
2023-04-07T16:55:21.507Z,100924.91
2023-04-07T16:57:50.237Z,100936.97
2023-04-07T17:00:19.370Z,100931.06
2023-04-07T17:02:47.363Z,100936.81
2023-04-07T17:05:17.336Z,100923.84
2023-04-07T17:07:45.251Z,100938.19
2023-04-07T17:10:14.501Z,100931.47
2023-04-07T17:12:43.990Z,100936.50
2023-04-07T17:15:12.535Z,100947.25
2023-04-07T17:17:40.532Z,100952.59
2023-04-07T17:20:09.466Z,100941.97
2023-04-07T17:22:37.678Z,100959.53
2023-04-07T17:25:06.813Z,100951.97
2023-04-07T17:27:34.919Z,100970.69
2023-04-07T17:30:05.294Z,100971.22
2023-04-07T17:32:33.381Z,100972.94
2023-04-07T17:35:01.353Z,100980.41
2023-04-07T17:37:29.221Z,100988.78
2023-04-07T17:39:57.095Z,100995.66
2023-04-07T17:42:25.012Z,100997.97
2023-04-07T17:44:53.922Z,100996.00
2023-04-07T17:47:23.201Z,100998.28
2023-04-07T17:49:51.409Z,100993.25
2023-04-07T17:52:19.351Z,101006.69
2023-04-07T17:54:47.395Z,101000.88
2023-04-07T17:57:15.904Z,101013.09
2023-04-07T17:59:43.838Z,101021.63
2023-04-07T18:02:11.842Z,101019.66
2023-04-07T18:04:41.481Z,101024.00
2023-04-07T18:07:09.655Z,101015.81
2023-04-07T18:09:37.554Z,101017.81
2023-04-07T18:12:06.331Z,101034.81
2023-04-07T18:14:34.253Z,101034.88
2023-04-07T18:17:02.194Z,101027.56
2023-04-07T18:19:31.023Z,101029.31
2023-04-07T18:22:01.036Z,101038.00
2023-04-07T18:24:29.258Z,101038.28
2023-04-07T18:26:57.670Z,101044.94
2023-04-07T18:29:25.568Z,101048.91
2023-04-07T18:31:53.494Z,101043.91
2023-04-07T18:34:21.417Z,101054.22
2023-04-07T18:36:49.797Z,101054.16
2023-04-07T18:39:19.203Z,101046.84
2023-04-07T18:41:48.329Z,101062.28
2023-04-07T18:44:16.223Z,101058.91
2023-04-07T18:46:44.252Z,101063.47
2023-04-07T18:49:12.156Z,101067.75
2023-04-07T18:51:40.092Z,101079.03
2023-04-07T18:54:07.991Z,101080.22
2023-04-07T18:56:37.514Z,101075.25
2023-04-07T18:59:07.258Z,101077.69
2023-04-07T19:01:35.708Z,101079.88
2023-04-07T19:04:03.750Z,101075.31
2023-04-07T19:06:32.490Z,101079.66
2023-04-07T19:09:00.783Z,101085.47
2023-04-07T19:11:31.201Z,101090.72
2023-04-07T19:14:01.212Z,101096.81
2023-04-07T19:16:32.708Z,101064.88
2023-04-07T19:19:01.748Z,101092.66
2023-04-07T19:21:31.228Z,101090.63
2023-04-07T19:24:02.330Z,100997.84
2023-04-07T19:26:30.926Z,101088.31
2023-04-07T19:29:00.672Z,101083.84
2023-04-07T19:31:29.769Z,101095.06
2023-04-07T19:34:05.720Z,101065.59
2023-04-07T19:36:33.720Z,101091.69
2023-04-07T19:39:03.675Z,101090.00
2023-04-07T19:41:35.365Z,101091.69
2023-04-07T19:44:08.353Z,101088.03
2023-04-07T19:46:36.557Z,101093.81
2023-04-07T19:49:04.477Z,101095.47
2023-04-07T19:51:33.055Z,101081.75
2023-04-07T19:54:01.033Z,101090.66
2023-04-07T19:56:28.998Z,101084.81
2023-04-07T19:58:56.959Z,101081.56
2023-04-07T20:01:26.455Z,101087.19
2023-04-07T20:03:54.547Z,101082.72
2023-04-07T20:06:24.907Z,101070.31
2023-04-07T20:08:52.766Z,101080.69
2023-04-07T20:11:21.687Z,101088.31
2023-04-07T20:13:49.663Z,101090.25
2023-04-07T20:16:17.912Z,101081.16
2023-04-07T20:18:48.074Z,101077.31
2023-04-07T20:21:16.457Z,101082.66
2023-04-07T20:23:44.391Z,101076.69
2023-04-07T20:26:12.257Z,101084.44
2023-04-07T20:28:40.140Z,101084.56
2023-04-07T20:31:08.145Z,101082.25
2023-04-07T20:33:36.039Z,101074.00
2023-04-07T20:36:05.654Z,101079.97
2023-04-07T20:38:33.535Z,101083.63
2023-04-07T20:41:01.568Z,101084.47
2023-04-07T20:43:29.474Z,101085.50
2023-04-07T20:45:58.103Z,101086.00
2023-04-07T20:48:26.709Z,101090.72
2023-04-07T20:50:54.679Z,101088.47
2023-04-07T20:53:23.961Z,101081.88
2023-04-07T20:55:51.996Z,101089.50
2023-04-07T20:58:20.179Z,101084.47
2023-04-07T21:00:48.085Z,101084.97
2023-04-07T21:03:16.409Z,101092.66
2023-04-07T21:05:45.824Z,101089.94
2023-04-07T21:08:14.796Z,101093.47
2023-04-07T21:10:44.182Z,101085.19
2023-04-07T21:13:12.087Z,101078.66
2023-04-07T21:15:42.321Z,101091.66
2023-04-07T21:18:10.631Z,101086.56
2023-04-07T21:20:38.645Z,101092.69
2023-04-07T21:23:07.795Z,101090.81
2023-04-07T21:25:37.561Z,101085.16
2023-04-07T21:28:07.365Z,101090.53
2023-04-07T21:30:35.292Z,101086.84
2023-04-07T21:33:03.655Z,101091.75
2023-04-07T21:35:31.633Z,101085.84
2023-04-07T21:37:59.547Z,101090.75
2023-04-07T21:40:27.456Z,101093.41
2023-04-07T21:42:55.311Z,101097.72
2023-04-07T21:45:24.588Z,101092.44
2023-04-07T21:47:52.508Z,101096.66
2023-04-07T21:50:20.445Z,101100.03
2023-04-07T21:52:50.804Z,101102.91
2023-04-07T21:55:19.036Z,101097.25
2023-04-07T21:57:47.249Z,101088.78
2023-04-07T22:00:16.502Z,101097.75
2023-04-07T22:02:46.418Z,101098.34
2023-04-07T22:05:14.668Z,101094.38
2023-04-07T22:07:42.620Z,101097.88
2023-04-07T22:10:11.646Z,101101.09
2023-04-07T22:12:39.529Z,101100.06
2023-04-07T22:15:08.563Z,101098.91
2023-04-07T22:17:36.664Z,101103.34
2023-04-07T22:20:07.298Z,101105.09
2023-04-07T22:22:35.185Z,101105.31
2023-04-07T22:25:03.361Z,101103.28
2023-04-07T22:27:31.258Z,101106.63
2023-04-07T22:29:59.170Z,101092.16
2023-04-07T22:32:27.121Z,101104.84
2023-04-07T22:34:55.040Z,101103.16
2023-04-07T22:37:24.304Z,101104.84
2023-04-07T22:39:52.192Z,101106.59
2023-04-07T22:42:20.092Z,101113.50
2023-04-07T22:44:47.969Z,101107.59
2023-04-07T22:47:15.914Z,101120.34
2023-04-07T22:49:43.815Z,101114.81
2023-04-07T22:52:11.722Z,101105.09
2023-04-07T22:54:41.034Z,101116.63
2023-04-07T22:57:09.047Z,101116.75
2023-04-07T22:59:37.170Z,101114.88
2023-04-07T23:02:05.227Z,101113.25
2023-04-07T23:04:33.146Z,101112.28
2023-04-07T23:07:01.283Z,101109.16
2023-04-07T23:09:29.190Z,101102.41
2023-04-07T23:11:58.515Z,101106.75
2023-04-07T23:14:26.395Z,101102.59
2023-04-07T23:16:56.054Z,101106.25
2023-04-07T23:19:24.309Z,101112.72
2023-04-07T23:21:52.309Z,101110.69
2023-04-07T23:24:20.595Z,101109.28
2023-04-07T23:26:48.576Z,101111.94
2023-04-07T23:29:17.856Z,101109.28
2023-04-07T23:31:45.783Z,101105.63
2023-04-07T23:34:13.722Z,101106.97
2023-04-07T23:36:42.030Z,101114.28
2023-04-07T23:39:09.944Z,101112.78
2023-04-07T23:41:38.259Z,101105.31
2023-04-07T23:44:07.007Z,101107.53
2023-04-07T23:46:36.375Z,101111.63
2023-04-07T23:49:04.345Z,101110.31
2023-04-07T23:51:32.364Z,101110.97
2023-04-07T23:54:00.215Z,101107.31
2023-04-07T23:56:28.982Z,101110.91
2023-04-07T23:58:57.003Z,101113.19
